sensor_id;sensor_type;location;lat;lon;timestamp;pressure;altitude;pressure_sealevel;temperature;humidity
56713;BME280;42589;45.536;9.032;2023-01-27T00:02:17;99317.59;;;13.29;38.60
56713;BME280;42589;45.536;9.032;2023-01-27T00:05:18;99309.38;;;13.31;39.32
56713;BME280;42589;45.536;9.032;2023-01-27T00:08:20;99302.34;;;13.67;38.19
56713;BME280;42589;45.536;9.032;2023-01-27T00:11:24;99290.81;;;13.67;37.97
56713;BME280;42589;45.536;9.032;2023-01-27T00:14:43;99291.81;;;13.81;38.13
56713;BME280;42589;45.536;9.032;2023-01-27T00:17:45;99278.28;;;13.38;38.01
56713;BME280;42589;45.536;9.032;2023-01-27T00:20:46;99287.97;;;13.83;38.03
56713;BME280;42589;45.536;9.032;2023-01-27T00:24:05;99295.16;;;13.15;38.96
56713;BME280;42589;45.536;9.032;2023-01-27T00:27:25;99282.78;;;12.85;39.04
56713;BME280;42589;45.536;9.032;2023-01-27T00:30:27;99291.75;;;13.07;39.14
56713;BME280;42589;45.536;9.032;2023-01-27T00:33:28;99289.41;;;13.27;38.30
56713;BME280;42589;45.536;9.032;2023-01-27T00:36:29;99280.06;;;13.08;38.99
56713;BME280;42589;45.536;9.032;2023-01-27T00:39:30;99275.41;;;12.87;39.52
56713;BME280;42589;45.536;9.032;2023-01-27T00:42:31;99268.00;;;13.12;38.83
56713;BME280;42589;45.536;9.032;2023-01-27T00:45:33;99272.44;;;13.19;38.88
56713;BME280;42589;45.536;9.032;2023-01-27T00:48:50;99262.00;;;12.95;38.63
56713;BME280;42589;45.536;9.032;2023-01-27T00:51:53;99278.78;;;13.04;38.86
56713;BME280;42589;45.536;9.032;2023-01-27T00:54:54;99262.81;;;13.33;37.66
56713;BME280;42589;45.536;9.032;2023-01-27T00:57:55;99275.94;;;13.20;38.41
56713;BME280;42589;45.536;9.032;2023-01-27T01:00:57;99273.28;;;13.35;38.28
56713;BME280;42589;45.536;9.032;2023-01-27T01:03:59;99280.03;;;13.45;38.02
56713;BME280;42589;45.536;9.032;2023-01-27T01:07:00;99275.47;;;13.16;38.34
56713;BME280;42589;45.536;9.032;2023-01-27T01:10:01;99287.34;;;12.76;38.90
56713;BME280;42589;45.536;9.032;2023-01-27T01:13:02;99289.81;;;13.38;38.24
56713;BME280;42589;45.536;9.032;2023-01-27T01:19:08;99297.34;;;12.74;39.42
56713;BME280;42589;45.536;9.032;2023-01-27T01:22:09;99302.00;;;12.95;39.24
56713;BME280;42589;45.536;9.032;2023-01-27T01:25:10;99283.94;;;12.82;39.01
56713;BME280;42589;45.536;9.032;2023-01-27T01:28:11;99292.91;;;13.57;38.17
56713;BME280;42589;45.536;9.032;2023-01-27T01:31:18;99265.56;;;12.87;38.59
56713;BME280;42589;45.536;9.032;2023-01-27T01:34:19;99276.31;;;12.94;38.76
56713;BME280;42589;45.536;9.032;2023-01-27T01:37:20;99291.81;;;12.98;39.16
56713;BME280;42589;45.536;9.032;2023-01-27T01:40:22;99285.91;;;12.42;39.32
56713;BME280;42589;45.536;9.032;2023-01-27T01:43:22;99280.09;;;12.07;41.35
56713;BME280;42589;45.536;9.032;2023-01-27T01:46:26;99276.16;;;12.95;38.98
56713;BME280;42589;45.536;9.032;2023-01-27T01:49:31;99259.19;;;12.50;39.46
56713;BME280;42589;45.536;9.032;2023-01-27T01:52:34;99272.31;;;12.98;39.34
56713;BME280;42589;45.536;9.032;2023-01-27T01:55:37;99283.97;;;13.35;38.42
56713;BME280;42589;45.536;9.032;2023-01-27T01:58:40;99261.63;;;12.98;38.83
56713;BME280;42589;45.536;9.032;2023-01-27T02:01:42;99272.56;;;13.26;38.21
56713;BME280;42589;45.536;9.032;2023-01-27T02:04:53;99270.22;;;13.08;38.59
56713;BME280;42589;45.536;9.032;2023-01-27T02:11:34;99259.97;;;13.50;37.77
56713;BME280;42589;45.536;9.032;2023-01-27T02:14:39;99255.63;;;13.34;38.07
56713;BME280;42589;45.536;9.032;2023-01-27T02:17:41;99252.78;;;13.80;36.82
56713;BME280;42589;45.536;9.032;2023-01-27T02:20:44;99262.00;;;13.62;37.20
56713;BME280;42589;45.536;9.032;2023-01-27T02:23:55;99246.16;;;13.46;37.55
56713;BME280;42589;45.536;9.032;2023-01-27T02:26:59;99264.47;;;13.49;37.12
56713;BME280;42589;45.536;9.032;2023-01-27T02:30:00;99275.69;;;13.44;37.27
56713;BME280;42589;45.536;9.032;2023-01-27T02:33:01;99263.59;;;13.04;36.97
56713;BME280;42589;45.536;9.032;2023-01-27T02:36:13;99271.00;;;13.46;36.86
56713;BME280;42589;45.536;9.032;2023-01-27T02:39:16;99263.63;;;13.63;35.91
56713;BME280;42589;45.536;9.032;2023-01-27T02:42:18;99250.50;;;13.32;36.43
56713;BME280;42589;45.536;9.032;2023-01-27T02:45:19;99270.56;;;13.58;35.82
56713;BME280;42589;45.536;9.032;2023-01-27T02:48:20;99281.03;;;13.44;35.64
56713;BME280;42589;45.536;9.032;2023-01-27T02:51:21;99261.53;;;13.29;36.43
56713;BME280;42589;45.536;9.032;2023-01-27T02:54:26;99267.81;;;13.51;35.88
56713;BME280;42589;45.536;9.032;2023-01-27T02:57:28;99257.66;;;13.46;35.90
56713;BME280;42589;45.536;9.032;2023-01-27T03:00:29;99275.91;;;13.43;36.99
56713;BME280;42589;45.536;9.032;2023-01-27T03:03:30;99262.63;;;13.50;36.61
56713;BME280;42589;45.536;9.032;2023-01-27T03:06:31;99263.19;;;13.30;37.15
56713;BME280;42589;45.536;9.032;2023-01-27T03:09:32;99262.09;;;13.54;36.67
56713;BME280;42589;45.536;9.032;2023-01-27T03:12:33;99252.06;;;13.27;36.84
56713;BME280;42589;45.536;9.032;2023-01-27T03:15:35;99268.06;;;13.41;36.48
56713;BME280;42589;45.536;9.032;2023-01-27T03:18:55;99274.59;;;13.54;36.13
56713;BME280;42589;45.536;9.032;2023-01-27T03:21:56;99255.38;;;13.06;36.62
56713;BME280;42589;45.536;9.032;2023-01-27T03:25:03;99276.72;;;13.43;36.36
56713;BME280;42589;45.536;9.032;2023-01-27T03:28:06;99274.13;;;13.50;36.51
56713;BME280;42589;45.536;9.032;2023-01-27T03:31:10;99269.19;;;13.77;36.11
56713;BME280;42589;45.536;9.032;2023-01-27T03:34:20;99244.88;;;13.27;36.43
56713;BME280;42589;45.536;9.032;2023-01-27T03:37:23;99258.91;;;13.21;36.88
56713;BME280;42589;45.536;9.032;2023-01-27T03:40:43;99255.09;;;13.68;35.75
56713;BME280;42589;45.536;9.032;2023-01-27T03:44:01;99260.88;;;13.57;36.65
56713;BME280;42589;45.536;9.032;2023-01-27T03:47:21;99260.59;;;13.66;36.41
56713;BME280;42589;45.536;9.032;2023-01-27T03:50:22;99249.56;;;13.40;36.83
56713;BME280;42589;45.536;9.032;2023-01-27T03:53:30;99262.34;;;13.44;36.97
56713;BME280;42589;45.536;9.032;2023-01-27T03:56:31;99272.00;;;13.75;36.94
56713;BME280;42589;45.536;9.032;2023-01-27T03:59:32;99258.59;;;13.01;38.47
56713;BME280;42589;45.536;9.032;2023-01-27T04:02:35;99262.53;;;13.43;37.49
56713;BME280;42589;45.536;9.032;2023-01-27T04:05:54;99268.25;;;13.69;36.17
56713;BME280;42589;45.536;9.032;2023-01-27T04:09:18;99247.72;;;13.55;36.07
56713;BME280;42589;45.536;9.032;2023-01-27T04:12:20;99255.47;;;13.35;35.63
56713;BME280;42589;45.536;9.032;2023-01-27T04:15:21;99275.16;;;13.34;35.94
56713;BME280;42589;45.536;9.032;2023-01-27T04:18:22;99273.31;;;13.50;35.00
56713;BME280;42589;45.536;9.032;2023-01-27T04:21:24;99269.63;;;13.65;35.39
56713;BME280;42589;45.536;9.032;2023-01-27T04:24:25;99272.22;;;13.29;36.02
56713;BME280;42589;45.536;9.032;2023-01-27T04:27:26;99278.38;;;13.59;34.99
56713;BME280;42589;45.536;9.032;2023-01-27T04:30:27;99268.53;;;13.60;35.20
56713;BME280;42589;45.536;9.032;2023-01-27T04:33:31;99273.59;;;13.55;35.22
56713;BME280;42589;45.536;9.032;2023-01-27T04:36:35;99274.22;;;13.72;35.44
56713;BME280;42589;45.536;9.032;2023-01-27T04:39:36;99265.94;;;13.37;36.02
56713;BME280;42589;45.536;9.032;2023-01-27T04:42:37;99264.47;;;13.34;35.74
56713;BME280;42589;45.536;9.032;2023-01-27T04:45:38;99276.53;;;13.30;36.21
56713;BME280;42589;45.536;9.032;2023-01-27T04:48:39;99275.34;;;13.33;36.40
56713;BME280;42589;45.536;9.032;2023-01-27T04:51:41;99270.72;;;13.41;36.09
56713;BME280;42589;45.536;9.032;2023-01-27T04:54:41;99259.13;;;13.34;36.62
56713;BME280;42589;45.536;9.032;2023-01-27T04:57:43;99287.06;;;13.23;36.44
56713;BME280;42589;45.536;9.032;2023-01-27T05:00:44;99273.13;;;13.36;36.43
56713;BME280;42589;45.536;9.032;2023-01-27T05:03:45;99278.41;;;13.21;36.87
56713;BME280;42589;45.536;9.032;2023-01-27T05:06:46;99279.41;;;13.06;36.26
56713;BME280;42589;45.536;9.032;2023-01-27T05:09:47;99276.72;;;13.06;35.97
56713;BME280;42589;45.536;9.032;2023-01-27T05:12:48;99281.44;;;13.18;35.88
56713;BME280;42589;45.536;9.032;2023-01-27T05:15:49;99287.75;;;13.02;36.49
56713;BME280;42589;45.536;9.032;2023-01-27T05:18:51;99289.44;;;13.04;36.25
56713;BME280;42589;45.536;9.032;2023-01-27T05:21:52;99298.78;;;12.99;36.09
56713;BME280;42589;45.536;9.032;2023-01-27T05:24:53;99291.50;;;13.16;36.35
56713;BME280;42589;45.536;9.032;2023-01-27T05:27:54;99278.50;;;12.52;37.95
56713;BME280;42589;45.536;9.032;2023-01-27T05:31:06;99298.56;;;12.86;38.12
56713;BME280;42589;45.536;9.032;2023-01-27T05:34:09;99291.97;;;12.97;37.10
56713;BME280;42589;45.536;9.032;2023-01-27T05:37:09;99305.66;;;13.17;37.00
56713;BME280;42589;45.536;9.032;2023-01-27T05:40:12;99304.78;;;12.55;38.08
56713;BME280;42589;45.536;9.032;2023-01-27T05:43:14;99306.97;;;12.29;37.93
56713;BME280;42589;45.536;9.032;2023-01-27T05:46:17;99301.16;;;12.57;37.23
56713;BME280;42589;45.536;9.032;2023-01-27T05:49:18;99323.06;;;12.67;37.67
56713;BME280;42589;45.536;9.032;2023-01-27T05:52:20;99298.94;;;12.37;37.86
56713;BME280;42589;45.536;9.032;2023-01-27T05:55:20;99303.97;;;12.78;36.83
56713;BME280;42589;45.536;9.032;2023-01-27T05:58:22;99321.75;;;12.86;37.22
56713;BME280;42589;45.536;9.032;2023-01-27T06:01:29;99324.53;;;12.92;36.22
56713;BME280;42589;45.536;9.032;2023-01-27T06:04:29;99326.22;;;12.39;37.26
56713;BME280;42589;45.536;9.032;2023-01-27T06:07:30;99326.91;;;12.41;37.66
56713;BME280;42589;45.536;9.032;2023-01-27T06:10:32;99320.75;;;12.41;37.46
56713;BME280;42589;45.536;9.032;2023-01-27T06:13:36;99335.47;;;11.73;38.23
56713;BME280;42589;45.536;9.032;2023-01-27T06:16:40;99341.97;;;12.26;37.55
56713;BME280;42589;45.536;9.032;2023-01-27T06:19:43;99344.06;;;12.39;37.69
56713;BME280;42589;45.536;9.032;2023-01-27T06:22:43;99344.56;;;12.03;38.27
56713;BME280;42589;45.536;9.032;2023-01-27T06:25:46;99344.00;;;12.16;38.17
56713;BME280;42589;45.536;9.032;2023-01-27T06:28:47;99347.22;;;12.65;37.56
56713;BME280;42589;45.536;9.032;2023-01-27T06:31:48;99357.22;;;12.40;37.59
56713;BME280;42589;45.536;9.032;2023-01-27T06:34:49;99367.31;;;12.53;37.21
56713;BME280;42589;45.536;9.032;2023-01-27T06:37:50;99359.13;;;12.23;37.70
56713;BME280;42589;45.536;9.032;2023-01-27T06:40:50;99370.03;;;12.45;37.07
56713;BME280;42589;45.536;9.032;2023-01-27T06:43:52;99366.63;;;12.28;37.51
56713;BME280;42589;45.536;9.032;2023-01-27T06:46:53;99369.09;;;12.29;38.00
56713;BME280;42589;45.536;9.032;2023-01-27T06:49:54;99365.94;;;11.70;38.83
56713;BME280;42589;45.536;9.032;2023-01-27T06:52:59;99367.94;;;12.24;38.12
56713;BME280;42589;45.536;9.032;2023-01-27T06:56:00;99378.28;;;12.58;37.98
56713;BME280;42589;45.536;9.032;2023-01-27T06:59:01;99372.72;;;12.37;38.19
56713;BME280;42589;45.536;9.032;2023-01-27T07:02:02;99374.56;;;12.36;38.04
56713;BME280;42589;45.536;9.032;2023-01-27T07:05:04;99373.44;;;12.30;38.26
56713;BME280;42589;45.536;9.032;2023-01-27T07:08:06;99382.97;;;12.56;37.85
56713;BME280;42589;45.536;9.032;2023-01-27T07:11:08;99378.75;;;12.62;37.22
56713;BME280;42589;45.536;9.032;2023-01-27T07:14:09;99379.81;;;12.21;37.90
56713;BME280;42589;45.536;9.032;2023-01-27T07:17:09;99386.25;;;12.27;37.26
56713;BME280;42589;45.536;9.032;2023-01-27T07:20:12;99392.56;;;11.87;38.21
56713;BME280;42589;45.536;9.032;2023-01-27T07:23:13;99393.75;;;12.31;37.82
56713;BME280;42589;45.536;9.032;2023-01-27T07:26:14;99385.84;;;12.07;36.90
56713;BME280;42589;45.536;9.032;2023-01-27T07:29:17;99363.34;;;12.10;37.58
56713;BME280;42589;45.536;9.032;2023-01-27T07:32:18;99403.94;;;12.59;37.03
56713;BME280;42589;45.536;9.032;2023-01-27T07:35:20;99406.31;;;12.15;37.72
56713;BME280;42589;45.536;9.032;2023-01-27T07:38:21;99419.03;;;11.72;39.01
56713;BME280;42589;45.536;9.032;2023-01-27T07:41:22;99424.09;;;12.22;37.66
56713;BME280;42589;45.536;9.032;2023-01-27T07:44:25;99422.34;;;11.90;37.61
56713;BME280;42589;45.536;9.032;2023-01-27T07:47:26;99416.19;;;11.81;37.71
56713;BME280;42589;45.536;9.032;2023-01-27T07:50:27;99422.88;;;12.33;37.73
56713;BME280;42589;45.536;9.032;2023-01-27T07:53:28;99420.59;;;12.22;37.45
56713;BME280;42589;45.536;9.032;2023-01-27T07:56:30;99426.28;;;12.19;37.48
56713;BME280;42589;45.536;9.032;2023-01-27T07:59:31;99429.28;;;12.16;37.83
56713;BME280;42589;45.536;9.032;2023-01-27T08:02:32;99423.13;;;12.54;37.25
56713;BME280;42589;45.536;9.032;2023-01-27T08:05:34;99432.53;;;12.96;36.56
56713;BME280;42589;45.536;9.032;2023-01-27T08:08:35;99436.38;;;12.94;36.90
56713;BME280;42589;45.536;9.032;2023-01-27T08:11:36;99436.94;;;12.89;36.23
56713;BME280;42589;45.536;9.032;2023-01-27T08:14:37;99434.88;;;12.37;37.00
56713;BME280;42589;45.536;9.032;2023-01-27T08:17:37;99432.16;;;12.76;36.18
56713;BME280;42589;45.536;9.032;2023-01-27T08:20:38;99438.94;;;12.87;36.26
56713;BME280;42589;45.536;9.032;2023-01-27T08:23:40;99441.31;;;12.51;36.63
56713;BME280;42589;45.536;9.032;2023-01-27T08:26:41;99440.63;;;12.49;36.67
56713;BME280;42589;45.536;9.032;2023-01-27T08:29:42;99436.78;;;12.60;36.42
56713;BME280;42589;45.536;9.032;2023-01-27T08:32:43;99443.63;;;12.85;35.52
56713;BME280;42589;45.536;9.032;2023-01-27T08:35:44;99455.63;;;12.81;35.92
56713;BME280;42589;45.536;9.032;2023-01-27T08:38:46;99457.97;;;12.53;36.27
56713;BME280;42589;45.536;9.032;2023-01-27T08:41:48;99459.09;;;12.90;35.65
56713;BME280;42589;45.536;9.032;2023-01-27T08:44:49;99460.25;;;13.27;34.49
56713;BME280;42589;45.536;9.032;2023-01-27T08:47:50;99469.59;;;12.13;35.98
56713;BME280;42589;45.536;9.032;2023-01-27T08:50:52;99465.03;;;13.00;35.38
56713;BME280;42589;45.536;9.032;2023-01-27T08:53:53;99461.63;;;12.83;34.75
56713;BME280;42589;45.536;9.032;2023-01-27T08:56:54;99461.19;;;12.71;35.43
56713;BME280;42589;45.536;9.032;2023-01-27T08:59:54;99475.31;;;13.80;34.17
56713;BME280;42589;45.536;9.032;2023-01-27T09:02:56;99468.63;;;13.15;34.87
56713;BME280;42589;45.536;9.032;2023-01-27T09:05:57;99478.69;;;12.74;34.92
56713;BME280;42589;45.536;9.032;2023-01-27T09:08:57;99481.09;;;12.61;35.33
56713;BME280;42589;45.536;9.032;2023-01-27T09:12:11;99472.06;;;12.62;34.73
56713;BME280;42589;45.536;9.032;2023-01-27T09:15:14;99466.84;;;12.76;34.95
56713;BME280;42589;45.536;9.032;2023-01-27T09:18:19;99478.25;;;12.93;35.31
56713;BME280;42589;45.536;9.032;2023-01-27T09:21:20;99469.72;;;13.29;34.24
56713;BME280;42589;45.536;9.032;2023-01-27T09:24:21;99475.41;;;12.95;35.16
56713;BME280;42589;45.536;9.032;2023-01-27T09:27:22;99488.47;;;13.44;34.43
56713;BME280;42589;45.536;9.032;2023-01-27T09:30:24;99487.75;;;13.50;34.52
56713;BME280;42589;45.536;9.032;2023-01-27T09:33:26;99482.81;;;14.00;33.58
56713;BME280;42589;45.536;9.032;2023-01-27T09:36:27;99493.66;;;13.60;34.21
56713;BME280;42589;45.536;9.032;2023-01-27T09:39:29;99488.63;;;13.19;34.22
56713;BME280;42589;45.536;9.032;2023-01-27T09:42:54;99494.28;;;13.47;34.70
56713;BME280;42589;45.536;9.032;2023-01-27T09:49:55;99483.94;;;14.05;33.40
56713;BME280;42589;45.536;9.032;2023-01-27T09:59:58;99495.25;;;13.23;34.54
56713;BME280;42589;45.536;9.032;2023-01-27T10:09:55;99488.78;;;13.26;33.36
56713;BME280;42589;45.536;9.032;2023-01-27T10:16:35;99495.63;;;13.89;33.09
56713;BME280;42589;45.536;9.032;2023-01-27T10:26:22;99484.13;;;14.48;32.21
56713;BME280;42589;45.536;9.032;2023-01-27T10:29:50;99466.66;;;13.78;32.68
56713;BME280;42589;45.536;9.032;2023-01-27T10:36:27;99482.09;;;14.35;31.75
56713;BME280;42589;45.536;9.032;2023-01-27T10:42:56;99477.31;;;14.75;30.80
56713;BME280;42589;45.536;9.032;2023-01-27T10:46:15;99457.84;;;13.55;33.45
56713;BME280;42589;45.536;9.032;2023-01-27T10:52:28;99456.78;;;15.40;30.50
56713;BME280;42589;45.536;9.032;2023-01-27T10:56:05;99456.03;;;15.25;30.79
56713;BME280;42589;45.536;9.032;2023-01-27T10:59:41;99462.44;;;14.88;30.54
56713;BME280;42589;45.536;9.032;2023-01-27T11:06:09;99459.16;;;15.71;29.40
56713;BME280;42589;45.536;9.032;2023-01-27T11:09:27;99452.91;;;15.43;30.36
56713;BME280;42589;45.536;9.032;2023-01-27T11:12:37;99459.16;;;15.28;30.39
56713;BME280;42589;45.536;9.032;2023-01-27T11:15:39;99462.13;;;15.19;30.86
56713;BME280;42589;45.536;9.032;2023-01-27T11:18:41;99448.59;;;15.42;29.83
56713;BME280;42589;45.536;9.032;2023-01-27T11:21:45;99452.69;;;15.44;30.02
56713;BME280;42589;45.536;9.032;2023-01-27T11:25:04;99435.91;;;15.29;29.67
56713;BME280;42589;45.536;9.032;2023-01-27T11:31:44;99443.66;;;15.45;29.81
56713;BME280;42589;45.536;9.032;2023-01-27T11:37:59;99449.75;;;14.96;29.85
56713;BME280;42589;45.536;9.032;2023-01-27T11:41:00;99419.69;;;14.58;29.98
56713;BME280;42589;45.536;9.032;2023-01-27T11:44:05;99435.91;;;14.27;30.83
56713;BME280;42589;45.536;9.032;2023-01-27T11:47:10;99427.34;;;14.97;30.43
56713;BME280;42589;45.536;9.032;2023-01-27T11:50:17;99423.41;;;14.27;29.57
56713;BME280;42589;45.536;9.032;2023-01-27T11:53:25;99426.81;;;14.21;31.82
56713;BME280;42589;45.536;9.032;2023-01-27T11:56:29;99430.13;;;14.89;30.05
56713;BME280;42589;45.536;9.032;2023-01-27T11:59:34;99427.59;;;15.02;29.66
56713;BME280;42589;45.536;9.032;2023-01-27T12:02:46;99405.56;;;15.00;29.29
56713;BME280;42589;45.536;9.032;2023-01-27T12:05:56;99420.44;;;15.52;28.61
56713;BME280;42589;45.536;9.032;2023-01-27T12:09:02;99401.84;;;15.23;29.10
56713;BME280;42589;45.536;9.032;2023-01-27T12:15:15;99399.78;;;15.46;28.48
56713;BME280;42589;45.536;9.032;2023-01-27T12:18:16;99402.41;;;14.75;28.71
56713;BME280;42589;45.536;9.032;2023-01-27T12:21:17;99417.94;;;14.86;29.57
56713;BME280;42589;45.536;9.032;2023-01-27T12:27:38;99372.00;;;14.47;30.42
56713;BME280;42589;45.536;9.032;2023-01-27T12:30:40;99402.13;;;15.06;28.58
56713;BME280;42589;45.536;9.032;2023-01-27T12:33:50;99407.13;;;14.95;29.18
56713;BME280;42589;45.536;9.032;2023-01-27T12:36:56;99403.84;;;14.56;28.98
56713;BME280;42589;45.536;9.032;2023-01-27T12:40:00;99399.97;;;14.59;29.91
56713;BME280;42589;45.536;9.032;2023-01-27T12:43:06;99402.41;;;15.18;28.83
56713;BME280;42589;45.536;9.032;2023-01-27T12:46:26;99395.25;;;15.25;28.96
56713;BME280;42589;45.536;9.032;2023-01-27T12:49:34;99386.78;;;14.13;29.46
56713;BME280;42589;45.536;9.032;2023-01-27T12:52:35;99386.06;;;13.89;29.90
56713;BME280;42589;45.536;9.032;2023-01-27T12:55:42;99390.84;;;14.09;30.01
56713;BME280;42589;45.536;9.032;2023-01-27T12:58:56;99375.06;;;14.29;29.18
56713;BME280;42589;45.536;9.032;2023-01-27T13:05:14;99388.53;;;13.76;29.77
56713;BME280;42589;45.536;9.032;2023-01-27T13:08:17;99359.81;;;13.78;29.37
56713;BME280;42589;45.536;9.032;2023-01-27T13:11:29;99395.06;;;14.84;28.86
56713;BME280;42589;45.536;9.032;2023-01-27T13:14:37;99390.34;;;14.65;29.76
56713;BME280;42589;45.536;9.032;2023-01-27T13:17:53;99398.94;;;14.60;28.85
56713;BME280;42589;45.536;9.032;2023-01-27T13:21:12;99394.59;;;14.29;29.61
56713;BME280;42589;45.536;9.032;2023-01-27T13:24:18;99390.16;;;14.66;28.14
56713;BME280;42589;45.536;9.032;2023-01-27T13:27:22;99407.47;;;14.70;28.57
56713;BME280;42589;45.536;9.032;2023-01-27T13:30:29;99395.22;;;14.97;28.41
56713;BME280;42589;45.536;9.032;2023-01-27T13:33:49;99384.31;;;15.20;28.87
56713;BME280;42589;45.536;9.032;2023-01-27T13:37:30;99385.41;;;15.26;28.72
56713;BME280;42589;45.536;9.032;2023-01-27T13:40:43;99374.13;;;14.88;28.86
56713;BME280;42589;45.536;9.032;2023-01-27T13:43:52;99382.84;;;14.75;28.89
56713;BME280;42589;45.536;9.032;2023-01-27T13:47:01;99386.41;;;14.82;29.01
56713;BME280;42589;45.536;9.032;2023-01-27T13:50:19;99384.19;;;14.85;29.36
56713;BME280;42589;45.536;9.032;2023-01-27T13:53:22;99391.81;;;14.67;29.17
56713;BME280;42589;45.536;9.032;2023-01-27T14:23:03;99396.69;;;14.78;30.18
56713;BME280;42589;45.536;9.032;2023-01-27T14:26:19;99399.69;;;14.54;30.30
56713;BME280;42589;45.536;9.032;2023-01-27T14:29:36;99387.00;;;14.11;31.05
56713;BME280;42589;45.536;9.032;2023-01-27T14:33:17;99392.56;;;14.46;30.70
56713;BME280;42589;45.536;9.032;2023-01-27T14:39:51;99381.50;;;14.85;30.45
56713;BME280;42589;45.536;9.032;2023-01-27T14:53:19;99361.09;;;14.63;29.89
56713;BME280;42589;45.536;9.032;2023-01-27T14:56:44;99387.28;;;14.68;30.10
56713;BME280;42589;45.536;9.032;2023-01-27T15:06:45;99392.47;;;14.54;30.90
56713;BME280;42589;45.536;9.032;2023-01-27T15:10:16;99398.31;;;14.79;30.38
56713;BME280;42589;45.536;9.032;2023-01-27T15:19:55;99400.16;;;14.13;30.71
56713;BME280;42589;45.536;9.032;2023-01-27T15:23:13;99388.97;;;14.39;30.60
56713;BME280;42589;45.536;9.032;2023-01-27T15:26:22;99384.31;;;13.97;31.06
56713;BME280;42589;45.536;9.032;2023-01-27T15:29:26;99395.81;;;13.97;31.44
56713;BME280;42589;45.536;9.032;2023-01-27T15:32:34;99385.50;;;14.09;31.21
56713;BME280;42589;45.536;9.032;2023-01-27T15:35:36;99370.19;;;14.32;30.38
56713;BME280;42589;45.536;9.032;2023-01-27T15:38:37;99365.59;;;13.97;30.99
56713;BME280;42589;45.536;9.032;2023-01-27T15:42:08;99370.78;;;13.83;30.90
56713;BME280;42589;45.536;9.032;2023-01-27T15:45:25;99381.09;;;13.86;31.51
56713;BME280;42589;45.536;9.032;2023-01-27T15:48:32;99371.94;;;14.10;30.94
56713;BME280;42589;45.536;9.032;2023-01-27T15:51:37;99389.28;;;14.00;30.26
56713;BME280;42589;45.536;9.032;2023-01-27T15:54:39;99370.28;;;13.94;30.69
56713;BME280;42589;45.536;9.032;2023-01-27T15:57:41;99380.88;;;13.58;31.37
56713;BME280;42589;45.536;9.032;2023-01-27T16:00:48;99403.56;;;14.22;30.88
56713;BME280;42589;45.536;9.032;2023-01-27T16:03:50;99401.25;;;13.74;31.27
56713;BME280;42589;45.536;9.032;2023-01-27T16:06:54;99395.72;;;13.61;30.73
56713;BME280;42589;45.536;9.032;2023-01-27T16:10:03;99407.91;;;13.93;30.90
56713;BME280;42589;45.536;9.032;2023-01-27T16:13:24;99414.34;;;14.13;30.99
56713;BME280;42589;45.536;9.032;2023-01-27T16:16:29;99399.13;;;14.14;30.02
56713;BME280;42589;45.536;9.032;2023-01-27T16:19:33;99413.34;;;14.14;30.58
56713;BME280;42589;45.536;9.032;2023-01-27T16:22:38;99401.91;;;14.06;30.31
56713;BME280;42589;45.536;9.032;2023-01-27T16:25:53;99409.38;;;14.10;31.60
56713;BME280;42589;45.536;9.032;2023-01-27T16:29:18;99411.94;;;14.04;31.74
56713;BME280;42589;45.536;9.032;2023-01-27T16:32:22;99420.56;;;13.61;32.38
56713;BME280;42589;45.536;9.032;2023-01-27T16:35:25;99387.22;;;13.57;32.52
56713;BME280;42589;45.536;9.032;2023-01-27T16:38:31;99394.44;;;13.72;32.32
56713;BME280;42589;45.536;9.032;2023-01-27T16:41:36;99399.22;;;13.61;32.36
56713;BME280;42589;45.536;9.032;2023-01-27T16:44:40;99399.22;;;13.61;32.02
56713;BME280;42589;45.536;9.032;2023-01-27T16:47:47;99425.19;;;13.67;31.92
56713;BME280;42589;45.536;9.032;2023-01-27T16:50:51;99427.00;;;13.52;31.96
56713;BME280;42589;45.536;9.032;2023-01-27T16:53:55;99413.56;;;13.60;31.97
56713;BME280;42589;45.536;9.032;2023-01-27T16:56:57;99425.72;;;13.48;32.67
56713;BME280;42589;45.536;9.032;2023-01-27T17:00:03;99426.19;;;13.66;32.72
56713;BME280;42589;45.536;9.032;2023-01-27T17:03:13;99431.75;;;13.80;31.83
56713;BME280;42589;45.536;9.032;2023-01-27T17:06:16;99431.00;;;13.71;32.12
56713;BME280;42589;45.536;9.032;2023-01-27T17:09:25;99450.56;;;13.86;32.15
56713;BME280;42589;45.536;9.032;2023-01-27T17:12:34;99441.09;;;13.99;31.73
56713;BME280;42589;45.536;9.032;2023-01-27T17:15:36;99464.28;;;13.83;32.13
56713;BME280;42589;45.536;9.032;2023-01-27T17:18:38;99447.78;;;13.80;32.73
56713;BME280;42589;45.536;9.032;2023-01-27T17:21:43;99450.28;;;13.12;33.20
56713;BME280;42589;45.536;9.032;2023-01-27T17:24:50;99453.28;;;13.40;32.85
56713;BME280;42589;45.536;9.032;2023-01-27T17:27:52;99467.41;;;13.49;32.59
56713;BME280;42589;45.536;9.032;2023-01-27T17:31:02;99465.00;;;13.92;32.23
56713;BME280;42589;45.536;9.032;2023-01-27T17:34:03;99470.03;;;13.72;32.39
56713;BME280;42589;45.536;9.032;2023-01-27T17:37:14;99470.59;;;13.44;32.65
56713;BME280;42589;45.536;9.032;2023-01-27T17:40:18;99470.91;;;13.50;32.67
56713;BME280;42589;45.536;9.032;2023-01-27T17:43:35;99473.94;;;13.84;32.16
56713;BME280;42589;45.536;9.032;2023-01-27T17:46:38;99466.00;;;13.38;32.57
56713;BME280;42589;45.536;9.032;2023-01-27T17:49:43;99432.50;;;12.82;33.48
56713;BME280;42589;45.536;9.032;2023-01-27T17:52:45;99471.75;;;13.27;32.84
56713;BME280;42589;45.536;9.032;2023-01-27T17:56:16;99460.22;;;13.50;32.43
56713;BME280;42589;45.536;9.032;2023-01-27T17:59:19;99491.50;;;13.41;33.19
56713;BME280;42589;45.536;9.032;2023-01-27T18:02:27;99485.97;;;13.42;32.75
56713;BME280;42589;45.536;9.032;2023-01-27T18:05:31;99480.06;;;13.01;33.32
56713;BME280;42589;45.536;9.032;2023-01-27T18:08:34;99481.72;;;13.33;32.51
56713;BME280;42589;45.536;9.032;2023-01-27T18:11:35;99495.41;;;13.53;32.33
56713;BME280;42589;45.536;9.032;2023-01-27T18:14:36;99502.94;;;13.27;32.99
56713;BME280;42589;45.536;9.032;2023-01-27T18:17:42;99480.41;;;13.29;33.14
56713;BME280;42589;45.536;9.032;2023-01-27T18:20:44;99496.91;;;12.93;34.33